Página principal
METAR-TAF:

METAR-TAF

Aeroportos :

Foz do Iguaçu, Paraná, Brasil

Aeroporto Internacional de Foz do Iguaçu

latitude: 25-31S, longitude: 054-35W, altura: 180 m

Observação actual do tempo

O boletim foi feito há 23 minutos, às 17:00 UTC
Vento 8 kt de norte
Temperatura 27°C
Humidade 45%
Pressão 1019 hPa
Visibilidade 10 km ou mais
sem nuvens abaixo de 1500 metros e sem cumulonimbus

METAR: SBFI 281700Z 36008KT CAVOK 27/14 Q1019

Hora: 14:23 (17:23 UTC)

Previsão

O boletim foi feito há 7 horas e 53 minutos, às 09:30 UTC
Previsão válida de 28 às 12 UTC a 29 às 12 UTC
Vento 5 kt de es-nordeste
Visibilidade 10 km ou mais
sem nuvens abaixo de 1500 metros e sem cumulonimbus
Tornando-se
de 29 às 04 UTC a 29 às 06 UTC
Vento 4 kt de es-sudeste

TAF: SBFI 280930Z 2812/2912 07005KT CAVOK TX28/2818Z TN17/2908Z BECMG 2904/2906 11004KT RMK PER

Observações e previsões do tempo de mais de 4000 aeroportos (mensagens METAR e TAF).

As estações disponíveis são os pontos amarelos e vermelhos sobre o mapa.

Mova o rato sobre o mapa para ver o nome da estação.

Depois clique no ponto para visualizar as observações e previsões meteorológicas.

Para alterar o mapa : clique nos botões verdes com uma cruz preta para aumentar o zoom; no botão verde com uma pitada de zoom; ou nas setas verdes para mapas adjacentes.


METAR-TAF: